Time;durP1;ratioP1;P1;durP2;ratioP2;P2;SDS_P1;SDS_P2;PMS_P1;PMS_P2;Temp;Humidity;BMP_temperature;BMP_pressure;BME280_temperature;BME280_humidity;BME280_pressure;Samples;Min_cycle;Max_cycle;Signal;HPM_P1;HPM_P2
2023/05/19 00:01:44;;;;;;;8.75;2.88;;;8.30;99.90;;;;;;4234046;28;20039;-84
2023/05/19 00:03:53;;;;;;;9.93;2.95;;;8.40;99.90;;;;;;4234024;28;20393;-84
2023/05/19 00:05:55;;;;;;;;;;;8.40;99.90;;;;;;4234029;28;20044;-84
2023/05/19 00:08:00;;;;;;;9.13;2.83;;;8.40;99.90;;;;;;4215901;28;19923;-84
2023/05/19 00:10:00;;;;;;;6.82;2.60;;;8.30;99.90;;;;;;4233664;27;20048;-84
2023/05/19 00:12:01;;;;;;;8.85;2.88;;;8.30;99.90;;;;;;4234016;28;20106;-84
2023/05/19 00:14:08;;;;;;;9.70;2.20;;;8.30;99.90;;;;;;4234158;28;20441;-84
2023/05/19 00:16:09;;;;;;;11.38;2.65;;;8.30;99.90;;;;;;4232744;28;20043;-84
2023/05/19 00:18:12;;;;;;;7.78;2.90;;;8.30;99.90;;;;;;4234631;28;20063;-85
2023/05/19 00:20:14;;;;;;;7.43;2.28;;;8.30;99.90;;;;;;4233617;28;20051;-84
2023/05/19 00:22:15;;;;;;;8.77;2.20;;;8.30;99.90;;;;;;4216379;28;20063;-84
2023/05/19 00:24:16;;;;;;;6.93;2.50;;;8.20;99.90;;;;;;4233495;28;20101;-83
2023/05/19 00:26:17;;;;;;;7.22;2.10;;;8.30;99.90;;;;;;4233463;28;20070;-84
2023/05/19 00:28:17;;;;;;;11.05;2.30;;;8.20;99.90;;;;;;4241856;27;20482;-84
2023/05/19 00:30:18;;;;;;;9.82;3.03;;;8.20;99.90;;;;;;4250545;27;20117;-83
2023/05/19 00:32:20;;;;;;;10.15;2.80;;;8.20;99.90;;;;;;4251185;27;20505;-83
2023/05/19 00:34:21;;;;;;;16.55;3.42;;;8.20;99.90;;;;;;4250448;27;20080;-83
2023/05/19 00:36:21;;;;;;;8.85;2.58;;;8.20;99.90;;;;;;4251173;27;20047;-84
2023/05/19 00:38:23;;;;;;;5.03;2.08;;;8.10;99.90;;;;;;4245919;27;20118;-84
2023/05/19 00:40:24;;;;;;;5.03;1.98;;;8.10;99.90;;;;;;4242391;27;20070;-84
2023/05/19 00:42:25;;;;;;;7.18;2.20;;;8.10;99.90;;;;;;4233930;28;20046;-84
2023/05/19 00:44:27;;;;;;;7.65;2.10;;;8.10;99.90;;;;;;4241148;27;20039;-85
2023/05/19 00:46:29;;;;;;;5.68;1.75;;;8.10;99.90;;;;;;4250628;27;20095;-85
2023/05/19 00:48:31;;;;;;;10.00;1.65;;;8.10;99.90;;;;;;4231167;28;20059;-84
2023/05/19 00:50:32;;;;;;;7.00;3.13;;;8.10;99.90;;;;;;4250488;27;20043;-84
2023/05/19 00:52:34;;;;;;;6.80;1.92;;;8.00;99.90;;;;;;4250021;27;20100;-84
2023/05/19 00:54:35;;;;;;;5.03;2.08;;;8.60;99.90;;;;;;4250334;27;20411;-84
2023/05/19 00:56:38;;;;;;;4.20;1.75;;;8.00;99.90;;;;;;4242609;27;20499;-84
2023/05/19 00:58:39;;;;;;;7.85;1.75;;;8.00;99.90;;;;;;4232920;28;20457;-84
2023/05/19 01:00:41;;;;;;;4.68;1.75;;;7.90;99.90;;;;;;4215269;28;20052;-84
2023/05/19 01:02:42;;;;;;;8.50;1.67;;;7.90;99.90;;;;;;4213898;28;20409;-84
2023/05/19 01:04:45;;;;;;;6.07;1.38;;;7.80;99.90;;;;;;4233029;28;20048;-84
2023/05/19 01:06:55;;;;;;;16.50;3.78;;;7.80;99.90;;;;;;4235973;27;20092;-83
2023/05/19 01:08:56;;;;;;;4.18;1.77;;;7.80;99.90;;;;;;4232233;28;20075;-84
2023/05/19 01:10:58;;;;;;;6.05;1.60;;;7.80;99.90;;;;;;4233558;28;20054;-84
2023/05/19 01:13:04;;;;;;;7.05;2.20;;;7.80;99.90;;;;;;4202297;28;20128;-84
2023/05/19 01:15:06;;;;;;;5.13;1.30;;;7.80;99.90;;;;;;4250246;27;20549;-84
2023/05/19 01:17:19;;;;;;;5.18;1.52;;;7.70;99.90;;;;;;4250285;27;20419;-84
2023/05/19 01:19:26;;;;;;;4.07;1.40;;;7.70;99.90;;;;;;4249826;27;20696;-84
2023/05/19 01:21:36;;;;;;;10.43;2.38;;;7.70;99.90;;;;;;4249791;27;20043;-84
2023/05/19 01:23:55;;;;;;;9.65;1.92;;;7.70;99.90;;;;;;4249857;27;20107;-85
2023/05/19 01:26:18;;;;;;;5.43;1.92;;;8.10;99.90;;;;;;4249682;27;20043;-84
2023/05/19 01:28:31;;;;;;;6.75;1.80;;;7.70;99.90;;;;;;4241768;27;20053;-84
2023/05/19 01:30:51;;;;;;;2.83;1.40;;;7.80;99.90;;;;;;4250053;27;20043;-84
2023/05/19 01:32:55;;;;;;;7.90;1.80;;;7.60;99.90;;;;;;4250061;27;20117;-84
2023/05/19 01:34:57;;;;;;;5.07;1.60;;;7.50;99.90;;;;;;4249652;28;20043;-85
2023/05/19 01:36:59;;;;;;;4.95;1.70;;;7.60;99.90;;;;;;4250403;28;20082;-84
2023/05/19 01:39:02;;;;;;;6.47;2.22;;;7.50;99.90;;;;;;4249562;28;20039;-84
2023/05/19 01:41:05;;;;;;;6.93;1.67;;;7.50;99.90;;;;;;4248439;28;20551;-84
2023/05/19 01:43:07;;;;;;;7.65;2.00;;;7.50;99.90;;;;;;4243849;28;20054;-84
2023/05/19 01:45:09;;;;;;;3.38;1.40;;;7.50;99.90;;;;;;4248714;28;20043;-85
2023/05/19 01:47:10;;;;;;;3.72;1.58;;;7.40;99.90;;;;;;4249794;28;20479;-84
2023/05/19 01:49:12;;;;;;;6.00;1.50;;;7.40;99.90;;;;;;4249289;28;20079;-84
2023/05/19 01:51:13;;;;;;;5.15;1.50;;;7.40;99.90;;;;;;4249941;28;20494;-84
2023/05/19 01:53:14;;;;;;;6.13;2.33;;;8.00;99.90;;;;;;4249613;28;20499;-84
2023/05/19 01:55:15;;;;;;;8.70;1.90;;;7.40;99.90;;;;;;4230495;28;20101;-84
2023/05/19 01:57:23;;;;;;;14.73;2.67;;;7.30;99.90;;;;;;4250088;28;20047;-84
2023/05/19 01:59:58;;;;;;;8.00;1.67;;;7.30;99.90;;;;;;4249377;28;20039;-84
2023/05/19 02:02:03;;;;;;;10.07;1.60;;;7.40;99.90;;;;;;4237657;28;20182;-84
2023/05/19 02:04:34;;;;;;;9.93;1.77;;;7.30;99.90;;;;;;4233406;28;20131;-84
2023/05/19 02:07:02;;;;;;;6.07;1.35;;;7.30;99.90;;;;;;4232713;28;20406;-84
2023/05/19 02:09:11;;;;;;;5.75;1.85;;;7.40;99.90;;;;;;4232512;28;20054;-84
2023/05/19 02:11:20;;;;;;;6.03;1.52;;;7.30;99.90;;;;;;4232453;28;20484;-83
2023/05/19 02:13:21;;;;;;;;;;;7.30;99.90;;;;;;4243762;28;20491;-84
2023/05/19 02:15:30;;;;;;;9.65;2.00;;;7.40;99.90;;;;;;4235890;28;19979;-84
2023/05/19 02:17:35;;;;;;;6.15;1.73;;;7.50;99.90;;;;;;4235476;28;20079;-84
2023/05/19 02:19:39;;;;;;;3.40;2.00;;;7.40;99.90;;;;;;4237090;28;20387;-84
2023/05/19 02:21:39;;;;;;;9.55;2.25;;;7.30;99.90;;;;;;4236655;28;20096;-84
2023/05/19 02:23:43;;;;;;;7.28;2.30;;;7.40;99.90;;;;;;4217967;28;20496;-84
2023/05/19 02:25:44;;;;;;;8.55;2.03;;;7.30;99.90;;;;;;4236012;28;20048;-84
2023/05/19 02:27:45;;;;;;;5.47;1.58;;;7.20;99.90;;;;;;4239967;27;20023;-84
2023/05/19 02:29:47;;;;;;;3.63;1.60;;;7.20;99.90;;;;;;4252819;27;20043;-84
2023/05/19 02:31:49;;;;;;;6.22;1.70;;;7.60;99.90;;;;;;4252527;27;20063;-85
2023/05/19 02:33:49;;;;;;;9.65;1.75;;;7.30;99.90;;;;;;4252479;27;20046;-84
2023/05/19 02:35:50;;;;;;;8.90;1.42;;;7.20;99.90;;;;;;4252171;27;20084;-85
2023/05/19 02:37:51;;;;;;;6.53;1.67;;;7.20;99.90;;;;;;4251962;27;20039;-84
2023/05/19 02:39:53;;;;;;;7.00;1.80;;;7.20;99.90;;;;;;4252628;27;20047;-85
2023/05/19 02:41:55;;;;;;;5.15;1.50;;;7.20;99.90;;;;;;4240789;27;20040;-85
2023/05/19 02:43:56;;;;;;;4.28;1.40;;;7.50;99.90;;;;;;4235002;28;20047;-84
2023/05/19 02:45:57;;;;;;;10.05;1.88;;;7.50;99.90;;;;;;4216895;28;20127;-84
2023/05/19 02:47:59;;;;;;;4.63;1.52;;;7.60;99.90;;;;;;4251752;27;20054;-84
2023/05/19 02:49:59;;;;;;;9.25;1.70;;;7.10;99.90;;;;;;4234780;28;20078;-83
2023/05/19 02:52:04;;;;;;;9.20;1.65;;;7.60;99.90;;;;;;4251880;27;20040;-83
2023/05/19 02:54:05;;;;;;;2.47;1.25;;;7.10;99.90;;;;;;4253083;27;20051;-85
2023/05/19 02:56:07;;;;;;;6.22;2.47;;;7.00;99.90;;;;;;4234098;28;20054;-85
2023/05/19 02:58:07;;;;;;;4.38;1.60;;;7.10;99.90;;;;;;4252113;27;20069;-85
2023/05/19 03:00:09;;;;;;;8.70;1.42;;;7.10;99.90;;;;;;4235128;27;20075;-84
2023/05/19 03:02:10;;;;;;;4.93;1.33;;;7.00;99.90;;;;;;4236647;27;20058;-85
2023/05/19 03:04:12;;;;;;;5.55;1.70;;;7.00;99.90;;;;;;4235830;28;20043;-84
2023/05/19 03:06:16;;;;;;;6.75;2.20;;;7.30;99.90;;;;;;4235516;28;20118;-85
2023/05/19 03:08:18;;;;;;;5.22;1.60;;;6.90;99.90;;;;;;4235496;28;20059;-85
2023/05/19 03:10:19;;;;;;;5.25;1.58;;;6.90;99.90;;;;;;4242472;27;20563;-85
2023/05/19 03:12:20;;;;;;;8.93;1.48;;;7.00;99.90;;;;;;4252956;27;20082;-85
2023/05/19 03:14:23;;;;;;;5.03;1.55;;;7.30;99.90;;;;;;4234577;28;20118;-85
2023/05/19 03:16:26;;;;;;;5.25;1.65;;;7.20;99.90;;;;;;4252879;27;20471;-85
2023/05/19 03:18:27;;;;;;;7.18;1.50;;;7.40;99.90;;;;;;4252220;27;20039;-85
2023/05/19 03:20:32;;;;;;;7.07;2.00;;;6.90;99.90;;;;;;4233881;28;20123;-85
2023/05/19 03:22:34;;;;;;;5.60;1.83;;;7.00;99.90;;;;;;4252678;27;20383;-85
2023/05/19 03:24:35;;;;;;;4.38;1.90;;;7.30;99.90;;;;;;4252052;27;20057;-85
2023/05/19 03:26:36;;;;;;;7.63;1.95;;;7.20;99.90;;;;;;4233359;28;20495;-85
2023/05/19 03:28:38;;;;;;;11.10;3.10;;;7.00;99.90;;;;;;4252253;27;20074;-85
2023/05/19 03:30:40;;;;;;;11.38;3.15;;;7.00;99.90;;;;;;4233356;28;20086;-85
2023/05/19 03:32:40;;;;;;;7.30;2.60;;;7.30;99.90;;;;;;4251677;27;20039;-85
2023/05/19 03:34:41;;;;;;;10.38;2.97;;;7.00;99.90;;;;;;4251089;27;20081;-85
2023/05/19 03:36:43;;;;;;;7.93;2.28;;;7.40;99.90;;;;;;4252606;27;20483;-85
2023/05/19 03:38:44;;;;;;;8.95;2.58;;;7.10;99.90;;;;;;4250418;27;20111;-85
2023/05/19 03:40:45;;;;;;;13.68;2.47;;;7.10;99.90;;;;;;4243351;27;20402;-85
2023/05/19 03:42:45;;;;;;;11.77;4.57;;;7.30;99.90;;;;;;4235272;28;20103;-84
2023/05/19 03:44:46;;;;;;;6.22;2.22;;;7.00;99.90;;;;;;4242686;27;20066;-85
2023/05/19 03:46:47;;;;;;;6.90;2.10;;;7.40;99.90;;;;;;4251614;27;20087;-84
2023/05/19 03:48:48;;;;;;;10.95;2.40;;;7.00;99.90;;;;;;4251408;27;20383;-84
2023/05/19 03:50:49;;;;;;;7.13;2.28;;;7.00;99.90;;;;;;4251964;27;20054;-85
2023/05/19 03:52:49;;;;;;;5.28;2.20;;;7.20;99.90;;;;;;4251281;27;20045;-85
2023/05/19 03:54:51;;;;;;;5.45;2.30;;;7.00;99.90;;;;;;4251931;27;20047;-85
2023/05/19 03:56:53;;;;;;;9.27;1.98;;;7.00;99.90;;;;;;4243126;27;20513;-85
2023/05/19 03:58:54;;;;;;;3.85;1.90;;;7.00;99.90;;;;;;4246673;27;20043;-84
2023/05/19 04:00:55;;;;;;;5.70;2.38;;;7.70;99.90;;;;;;4251604;27;20050;-84
2023/05/19 04:02:58;;;;;;;6.70;1.83;;;6.90;99.90;;;;;;4250968;27;20479;-85
2023/05/19 04:04:59;;;;;;;10.85;2.00;;;7.00;99.90;;;;;;4251938;27;20060;-85
2023/05/19 04:07:00;;;;;;;6.32;2.20;;;7.00;99.90;;;;;;4232370;28;20127;-85
2023/05/19 04:09:03;;;;;;;2.70;1.52;;;7.00;99.90;;;;;;4250777;27;20554;-85
2023/05/19 04:11:04;;;;;;;10.77;2.10;;;7.00;99.90;;;;;;4232953;28;20058;-85
2023/05/19 04:13:05;;;;;;;7.07;2.30;;;7.40;99.90;;;;;;4250915;27;20074;-85
2023/05/19 04:15:06;;;;;;;6.05;2.38;;;7.00;99.90;;;;;;4251911;27;20047;-85
2023/05/19 04:17:07;;;;;;;10.57;2.70;;;7.00;99.90;;;;;;4250972;27;20062;-85
2023/05/19 04:19:07;;;;;;;11.88;2.35;;;7.80;99.90;;;;;;4251414;27;20043;-85
2023/05/19 04:21:09;;;;;;;11.60;2.00;;;7.10;99.90;;;;;;4233295;28;20055;-85
2023/05/19 04:23:10;;;;;;;8.77;2.58;;;7.10;99.90;;;;;;4245788;27;20039;-85
2023/05/19 04:25:12;;;;;;;7.72;2.08;;;7.10;99.90;;;;;;4250479;27;20452;-85
2023/05/19 04:27:14;;;;;;;5.05;1.70;;;7.10;99.90;;;;;;4253196;27;20047;-85
2023/05/19 04:29:16;;;;;;;6.82;2.10;;;7.10;99.90;;;;;;4251260;27;20082;-85
2023/05/19 04:31:17;;;;;;;13.45;2.70;;;7.10;99.90;;;;;;4231917;28;20050;-85
2023/05/19 04:33:18;;;;;;;7.03;1.67;;;7.10;99.90;;;;;;4251021;27;20478;-85
2023/05/19 04:35:20;;;;;;;5.38;1.60;;;7.10;99.90;;;;;;4250907;27;20407;-85
2023/05/19 04:37:22;;;;;;;5.03;2.10;;;7.10;99.90;;;;;;4232085;28;20058;-85
2023/05/19 04:39:24;;;;;;;5.82;1.83;;;7.20;99.90;;;;;;4250123;27;20039;-85
2023/05/19 04:41:25;;;;;;;8.20;2.53;;;7.40;99.90;;;;;;4232332;28;20051;-85
2023/05/19 04:43:27;;;;;;;4.18;1.50;;;7.20;99.90;;;;;;4246904;27;20432;-85
2023/05/19 04:45:27;;;;;;;6.65;1.58;;;7.30;99.90;;;;;;4249680;27;20043;-85
2023/05/19 04:47:28;;;;;;;5.95;1.90;;;7.30;99.90;;;;;;4251037;27;20043;-85
2023/05/19 04:49:29;;;;;;;5.05;1.45;;;7.30;99.90;;;;;;4250567;27;20050;-86
2023/05/19 04:51:30;;;;;;;3.78;1.27;;;7.40;99.90;;;;;;4232308;28;20040;-85
2023/05/19 04:53:32;;;;;;;5.13;1.63;;;7.70;99.90;;;;;;4249893;27;20095;-85
2023/05/19 04:55:33;;;;;;;1.52;1.13;;;7.50;99.90;;;;;;4250584;27;20051;-84
2023/05/19 04:57:34;;;;;;;4.93;1.73;;;7.50;99.90;;;;;;4250018;27;20578;-85
2023/05/19 04:59:36;;;;;;;2.88;1.42;;;8.00;99.90;;;;;;4248817;27;20035;-85
2023/05/19 05:01:41;;;;;;;5.80;1.50;;;7.60;99.90;;;;;;4248169;27;20042;-85
2023/05/19 05:03:43;;;;;;;3.10;1.45;;;7.80;99.90;;;;;;4249951;27;20047;-85
2023/05/19 05:05:45;;;;;;;3.67;1.15;;;7.70;99.90;;;;;;4232733;28;20118;-83
2023/05/19 05:07:46;;;;;;;1.42;1.20;;;7.80;99.90;;;;;;4250422;27;20043;-84
2023/05/19 05:09:47;;;;;;;1.70;1.00;;;7.90;99.90;;;;;;4233185;28;20051;-83
2023/05/19 05:11:48;;;;;;;3.15;1.40;;;8.00;99.90;;;;;;4250243;27;20495;-84
2023/05/19 05:13:49;;;;;;;2.58;1.30;;;8.00;99.90;;;;;;4235254;27;20078;-85
2023/05/19 05:15:54;;;;;;;4.03;1.30;;;8.10;99.90;;;;;;4233860;28;20073;-84
2023/05/19 05:17:55;;;;;;;5.18;2.08;;;8.20;99.90;;;;;;4218034;28;20507;-84
2023/05/19 05:19:57;;;;;;;3.70;1.30;;;8.30;99.90;;;;;;4250337;27;20054;-85
2023/05/19 05:21:59;;;;;;;3.85;1.80;;;8.30;99.90;;;;;;4250104;27;20046;-85
2023/05/19 05:24:00;;;;;;;7.45;1.98;;;8.40;99.90;;;;;;4250917;27;20047;-85
2023/05/19 05:26:16;;;;;;;19.42;4.05;;;8.50;99.90;;;;;;4233300;28;20499;-84
2023/05/19 05:28:16;;;;;;;8.65;2.88;;;8.60;99.90;;;;;;4250479;27;20043;-85
2023/05/19 05:30:17;;;;;;;7.20;3.05;;;8.80;99.90;;;;;;4246539;27;20040;-85
2023/05/19 05:32:18;;;;;;;7.53;3.88;;;8.90;99.90;;;;;;4215597;28;20048;-85
2023/05/19 05:34:18;;;;;;;7.97;3.30;;;9.00;99.90;;;;;;4215567;28;20028;-85
2023/05/19 05:36:19;;;;;;;10.15;3.35;;;9.10;99.90;;;;;;4214640;28;20103;-85
2023/05/19 05:38:20;;;;;;;10.05;3.47;;;9.20;99.90;;;;;;4197739;28;20052;-85
2023/05/19 05:40:20;;;;;;;11.73;3.30;;;9.30;99.90;;;;;;4232013;28;20039;-85
2023/05/19 05:42:22;;;;;;;11.95;3.97;;;9.50;99.90;;;;;;4244916;28;20055;-85
2023/05/19 05:44:23;;;;;;;10.35;3.85;;;9.70;99.90;;;;;;4249395;28;20047;-85
2023/05/19 05:46:23;;;;;;;13.05;3.88;;;9.70;99.90;;;;;;4230640;28;20191;-85
2023/05/19 05:48:24;;;;;;;9.20;4.00;;;9.80;99.90;;;;;;4249985;28;20047;-85
2023/05/19 05:50:25;;;;;;;13.50;4.80;;;9.90;99.90;;;;;;4234045;28;20040;-85
2023/05/19 05:52:29;;;;;;;11.00;4.10;;;10.00;99.90;;;;;;4253460;27;20050;-85
2023/05/19 05:54:30;;;;;;;10.88;4.28;;;10.10;99.90;;;;;;4253476;27;20035;-85
2023/05/19 05:56:32;;;;;;;13.65;4.53;;;10.20;99.90;;;;;;4253081;27;20542;-84
2023/05/19 05:58:36;;;;;;;14.80;4.80;;;10.30;99.90;;;;;;4253118;27;20019;-84
2023/05/19 06:00:37;;;;;;;15.07;3.85;;;10.30;99.90;;;;;;4217163;28;20052;-84
2023/05/19 06:02:38;;;;;;;10.13;3.95;;;10.40;99.90;;;;;;4235648;28;20138;-83
2023/05/19 06:04:39;;;;;;;8.40;4.32;;;10.50;99.90;;;;;;4236312;28;20047;-84
2023/05/19 06:06:40;;;;;;;12.35;5.53;;;10.60;99.90;;;;;;4219159;28;20044;-83
2023/05/19 06:08:41;;;;;;;13.70;3.78;;;10.70;99.90;;;;;;4235907;28;20059;-83
2023/05/19 06:10:42;;;;;;;8.48;4.15;;;10.80;99.90;;;;;;4235970;28;20409;-82
2023/05/19 06:12:43;;;;;;;10.77;4.20;;;10.90;99.90;;;;;;4235460;28;20035;-83
2023/05/19 06:14:44;;;;;;;12.07;4.05;;;11.00;99.90;;;;;;4216972;28;20137;-84
2023/05/19 06:16:46;;;;;;;11.63;4.50;;;11.00;99.90;;;;;;4235693;28;20118;-83
2023/05/19 06:18:47;;;;;;;14.98;5.65;;;11.10;99.90;;;;;;4217547;28;20690;-84
2023/05/19 06:20:49;;;;;;;13.40;3.90;;;11.10;99.90;;;;;;4235094;28;20503;-83
2023/05/19 06:22:49;;;;;;;11.73;4.60;;;11.30;99.90;;;;;;4216526;28;20169;-82
2023/05/19 06:24:50;;;;;;;10.60;3.90;;;;;;;;;;4233950;28;20047;-83
2023/05/19 06:26:52;;;;;;;12.43;3.83;;;;;;;;;;4234906;28;20132;-84
2023/05/19 06:28:53;;;;;;;13.68;5.07;;;;;;;;;;4225393;28;20046;-86
2023/05/19 06:30:53;;;;;;;11.38;4.93;;;11.40;99.90;;;;;;4233550;28;20047;-86
2023/05/19 06:32:55;;;;;;;10.45;4.45;;;11.70;99.90;;;;;;4251479;27;20042;-83
2023/05/19 06:34:57;;;;;;;9.85;3.72;;;11.80;99.90;;;;;;4251772;27;20501;-85
2023/05/19 06:36:58;;;;;;;13.60;3.65;;;11.90;99.90;;;;;;4246263;27;20422;-85
2023/05/19 06:38:59;;;;;;;11.68;4.22;;;12.00;99.90;;;;;;4227198;28;20040;-84
2023/05/19 06:40:59;;;;;;;9.93;3.85;;;12.10;99.90;;;;;;4226026;28;20084;-84
2023/05/19 06:43:07;;;;;;;14.10;4.57;;;12.20;99.90;;;;;;4238374;27;20094;-83
2023/05/19 06:45:08;;;;;;;12.43;3.42;;;12.20;99.90;;;;;;4208830;28;20399;-84
2023/05/19 06:47:09;;;;;;;8.35;3.25;;;12.40;99.90;;;;;;4250383;27;20123;-84
2023/05/19 06:49:10;;;;;;;9.43;3.63;;;12.40;99.90;;;;;;4224642;28;20032;-85
2023/05/19 06:51:12;;;;;;;6.93;4.15;;;12.50;99.90;;;;;;4238013;27;20043;-87
2023/05/19 06:53:13;;;;;;;6.97;3.10;;;12.50;99.90;;;;;;4250283;27;20035;-87
2023/05/19 06:55:13;;;;;;;9.23;3.22;;;12.50;99.90;;;;;;4233747;28;20123;-86
2023/05/19 06:57:14;;;;;;;11.13;2.90;;;12.50;99.90;;;;;;4251193;27;20039;-84
2023/05/19 06:59:15;;;;;;;10.82;3.80;;;12.60;99.90;;;;;;4251512;27;20043;-84
2023/05/19 07:01:16;;;;;;;9.27;3.35;;;12.60;99.90;;;;;;4215182;28;20051;-84
2023/05/19 07:03:17;;;;;;;8.77;2.88;;;12.70;99.90;;;;;;4232773;28;20044;-84
2023/05/19 07:05:18;;;;;;;6.55;3.10;;;12.80;99.90;;;;;;4233229;28;20052;-85
2023/05/19 07:07:19;;;;;;;8.65;3.25;;;12.90;99.90;;;;;;4251105;27;20491;-87
2023/05/19 07:09:21;;;;;;;6.97;3.05;;;13.10;99.90;;;;;;4252034;27;20120;-84
2023/05/19 07:11:22;;;;;;;6.78;2.47;;;13.10;99.90;;;;;;4239044;27;20047;-84
2023/05/19 07:13:23;;;;;;;6.25;2.67;;;13.20;99.90;;;;;;4251173;27;20530;-86
2023/05/19 07:15:26;;;;;;;5.65;2.58;;;13.40;99.90;;;;;;4251193;27;20455;-84
2023/05/19 07:17:26;;;;;;;9.32;3.47;;;13.50;99.90;;;;;;4219460;28;20051;-84
2023/05/19 07:19:27;;;;;;;10.15;3.03;;;13.60;99.90;;;;;;4216866;28;20267;-84
2023/05/19 07:21:29;;;;;;;5.47;2.20;;;13.70;99.90;;;;;;4234220;28;20047;-83
2023/05/19 07:23:30;;;;;;;6.07;2.60;;;13.80;99.90;;;;;;4234349;28;20093;-85
2023/05/19 07:25:32;;;;;;;11.80;3.55;;;14.00;99.90;;;;;;4215916;28;20052;-85
2023/05/19 07:27:33;;;;;;;7.18;2.13;;;;;;;;;;4235134;28;20093;-84
2023/05/19 07:29:33;;;;;;;8.68;2.05;;;14.10;99.90;;;;;;4215322;28;20047;-84
2023/05/19 07:31:34;;;;;;;7.38;2.40;;;14.30;99.90;;;;;;4238128;27;20040;-84
2023/05/19 07:33:35;;;;;;;3.80;2.05;;;14.40;99.90;;;;;;4230382;28;20097;-83
2023/05/19 07:35:36;;;;;;;9.35;2.40;;;14.50;99.90;;;;;;4239345;27;20143;-84
2023/05/19 07:37:37;;;;;;;6.50;1.75;;;;;;;;;;4246323;27;20035;-84
2023/05/19 07:39:38;;;;;;;8.43;2.10;;;;;;;;;;4245812;27;20049;-86
2023/05/19 07:41:40;;;;;;;6.97;2.67;;;;;;;;;;4249934;27;20023;-85
2023/05/19 07:43:41;;;;;;;7.18;1.80;;;14.60;99.90;;;;;;4240217;27;20039;-84
2023/05/19 07:45:42;;;;;;;9.27;1.90;;;15.20;99.90;;;;;;4243118;27;20047;-85
2023/05/19 07:47:45;;;;;;;5.50;2.15;;;15.20;99.90;;;;;;4250404;27;20133;-85
2023/05/19 07:49:46;;;;;;;8.68;2.00;;;;;;;;;;4232702;28;20051;-83
2023/05/19 07:51:47;;;;;;;8.23;2.08;;;;;;;;;;4251484;27;20042;-87
2023/05/19 07:53:48;;;;;;;6.30;1.60;;;;;;;;;;4250273;27;20039;-87
2023/05/19 07:55:49;;;;;;;6.50;1.65;;;15.30;99.90;;;;;;4247854;27;20069;-88
2023/05/19 07:57:50;;;;;;;8.70;1.85;;;15.80;99.90;;;;;;4240045;27;20081;-85
2023/05/19 07:59:51;;;;;;;7.20;2.15;;;;;;;;;;4234930;28;20047;-86
2023/05/19 08:01:52;;;;;;;6.88;1.77;;;;;;;;;;4229669;28;20052;-85
2023/05/19 08:03:53;;;;;;;7.05;1.77;;;;;;;;;;4251765;27;20079;-86
2023/05/19 08:05:54;;;;;;;6.38;1.38;;;;;;;;;;4252360;27;20801;-84
2023/05/19 08:07:56;;;;;;;4.88;1.63;;;;;;;;;;4231752;28;20051;-86
2023/05/19 08:09:57;;;;;;;10.13;2.28;;;;;;;;;;4213388;28;20051;-85
2023/05/19 08:12:00;;;;;;;5.78;2.15;;;;;;;;;;4220541;28;20122;-86
2023/05/19 08:14:01;;;;;;;4.47;1.80;;;;;;;;;;4243731;27;20071;-85
2023/05/19 08:16:02;;;;;;;6.45;1.98;;;;;;;;;;4240184;27;20444;-85
2023/05/19 08:18:04;;;;;;;8.13;2.30;;;;;;;;;;4248636;27;20106;-85
2023/05/19 08:20:07;;;;;;;7.93;2.08;;;;;;;;;;4250508;27;20039;-84
2023/05/19 08:22:08;;;;;;;7.63;2.15;;;;;;;;;;4249762;27;20563;-85
2023/05/19 08:24:10;;;;;;;5.97;1.77;;;;;;;;;;4248989;27;20058;-85
2023/05/19 08:26:11;;;;;;;7.20;3.05;;;;;;;;;;4249374;27;20061;-85
2023/05/19 08:28:12;;;;;;;5.75;1.70;;;16.00;99.90;;;;;;4232143;28;20067;-85
2023/05/19 08:30:13;;;;;;;5.63;2.03;;;;;;;;;;4249476;27;20050;-85
2023/05/19 08:32:14;;;;;;;5.00;1.55;;;;;;;;;;4250612;27;20517;-85
2023/05/19 08:34:15;;;;;;;10.60;2.80;;;;;;;;;;4250793;27;20046;-85
2023/05/19 08:36:17;;;;;;;7.57;2.33;;;17.80;99.90;;;;;;4231658;28;20096;-85
2023/05/19 08:38:17;;;;;;;13.65;3.70;;;18.20;99.90;;;;;;4228728;28;20127;-85
2023/05/19 08:40:19;;;;;;;8.15;1.77;;;18.30;99.90;;;;;;4228394;28;20081;-85
2023/05/19 08:42:20;;;;;;;5.63;1.92;;;18.50;99.80;;;;;;4250696;27;20043;-85
2023/05/19 08:44:21;;;;;;;5.07;1.80;;;18.70;99.70;;;;;;4250177;27;20077;-85
2023/05/19 08:46:24;;;;;;;7.55;2.97;;;18.80;99.50;;;;;;4250636;27;20039;-85
2023/05/19 08:48:31;;;;;;;7.82;1.80;;;19.00;98.90;;;;;;4250253;27;20042;-85
2023/05/19 08:50:38;;;;;;;6.63;2.67;;;19.20;98.60;;;;;;4250398;27;20047;-85
2023/05/19 08:52:56;;;;;;;5.50;2.10;;;19.40;98.40;;;;;;4251425;27;20080;-84
2023/05/19 08:55:08;;;;;;;8.13;1.67;;;19.70;97.60;;;;;;4215960;28;20512;-85
2023/05/19 08:57:09;;;;;;;8.45;2.10;;;19.90;98.20;;;;;;4223114;28;20051;-86
2023/05/19 08:59:13;;;;;;;8.40;2.53;;;20.00;97.80;;;;;;4234162;28;20035;-86
2023/05/19 09:01:17;;;;;;;5.20;2.10;;;20.00;97.10;;;;;;4231941;28;20047;-83
2023/05/19 09:03:19;;;;;;;4.68;2.03;;;20.00;96.90;;;;;;4251216;27;20185;-87
2023/05/19 09:05:20;;;;;;;4.20;2.00;;;20.00;96.50;;;;;;4250354;27;20086;-86
2023/05/19 09:07:24;;;;;;;8.85;2.60;;;20.10;96.40;;;;;;4241247;27;20649;-86
2023/05/19 09:09:25;;;;;;;7.28;2.20;;;20.20;95.90;;;;;;4247254;27;20026;-86
2023/05/19 09:11:26;;;;;;;8.00;2.38;;;20.40;95.80;;;;;;4250323;27;20456;-86
2023/05/19 09:13:27;;;;;;;11.70;2.25;;;20.60;95.70;;;;;;4249278;27;20539;-86
2023/05/19 09:15:28;;;;;;;5.93;2.28;;;20.90;95.40;;;;;;4237440;27;20031;-86
2023/05/19 09:17:28;;;;;;;7.53;2.13;;;21.10;95.20;;;;;;4233045;28;20075;-86
2023/05/19 09:19:30;;;;;;;10.95;2.67;;;;;;;;;;4250965;27;20035;-86
2023/05/19 09:21:31;;;;;;;5.50;1.52;;;;;;;;;;4248951;27;20118;-86
2023/05/19 09:23:33;;;;;;;12.10;2.38;;;;;;;;;;4250556;27;20087;-86
2023/05/19 09:25:34;;;;;;;5.45;1.67;;;;;;;;;;4249505;27;20114;-86
2023/05/19 09:27:35;;;;;;;5.43;2.05;;;;;;;;;;4248199;27;20036;-87
2023/05/19 09:29:38;;;;;;;9.35;1.90;;;;;;;;;;4250414;27;20039;-86
2023/05/19 09:31:39;;;;;;;3.45;1.50;;;;;;;;;;4251455;27;20083;-86
2023/05/19 09:33:41;;;;;;;5.22;1.17;;;21.30;94.50;;;;;;4248757;27;20039;-84
2023/05/19 09:35:47;;;;;;;4.43;1.48;;;;;;;;;;4234933;28;20054;-87
2023/05/19 09:37:48;;;;;;;7.63;1.80;;;;;;;;;;4237339;28;20053;-87
2023/05/19 09:39:51;;;;;;;4.82;1.85;;;;;;;;;;4251448;28;20054;-87
2023/05/19 09:41:53;;;;;;;6.85;1.48;;;;;;;;;;4251715;28;20047;-87
2023/05/19 09:43:58;;;;;;;6.28;1.77;;;;;;;;;;4249074;28;20380;-87
2023/05/19 09:46:00;;;;;;;5.25;1.83;;;;;;;;;;4251911;28;20074;-86
2023/05/19 09:48:04;;;;;;;5.07;1.80;;;21.90;91.60;;;;;;4233245;28;20135;-86
2023/05/19 09:50:07;;;;;;;6.05;1.95;;;21.90;86.10;;;;;;4250797;28;20082;-85
2023/05/19 09:52:08;;;;;;;4.05;1.63;;;21.90;84.80;;;;;;4233763;28;20193;-84
2023/05/19 09:54:14;;;;;;;8.75;1.77;;;21.90;84.90;;;;;;4232302;28;20039;-84
2023/05/19 09:56:16;;;;;;;7.63;1.60;;;;;;;;;;4215481;28;20052;-85
2023/05/19 09:58:20;;;;;;;3.72;1.42;;;;;;;;;;4233594;28;20051;-85
2023/05/19 10:00:22;;;;;;;8.73;2.95;;;;;;;;;;4234266;28;20118;-85
2023/05/19 10:02:24;;;;;;;4.05;1.60;;;;;;;;;;4250066;28;20046;-83
2023/05/19 10:04:27;;;;;;;7.80;1.65;;;;;;;;;;4248973;28;20059;-83
2023/05/19 10:06:28;;;;;;;6.20;1.88;;;;;;;;;;4248999;28;20047;-83
2023/05/19 10:08:30;;;;;;;8.73;1.80;;;;;;;;;;4248283;28;20043;-83
2023/05/19 10:10:32;;;;;;;3.30;2.05;;;;;;;;;;4248384;28;20047;-83
2023/05/19 10:12:33;;;;;;;7.70;1.83;;;;;;;;;;4219874;28;20058;-84
2023/05/19 10:14:34;;;;;;;5.70;1.95;;;;;;;;;;4246624;28;20048;-84
2023/05/19 10:16:35;;;;;;;5.28;1.70;;;;;;;;;;4250227;28;20078;-84
2023/05/19 10:18:37;;;;;;;5.75;1.58;;;;;;;;;;4248873;28;20126;-85
2023/05/19 10:20:39;;;;;;;5.32;2.30;;;;;;;;;;4250413;28;20047;-84
2023/05/19 10:22:44;;;;;;;6.50;1.85;;;;;;;;;;4249133;28;20051;-84
2023/05/19 10:24:45;;;;;;;8.18;3.10;;;;;;;;;;4248539;28;20088;-84
2023/05/19 10:26:49;;;;;;;7.50;2.13;;;;;;;;;;4249490;28;20115;-84
2023/05/19 10:28:50;;;;;;;4.63;1.77;;;;;;;;;;4248540;28;20376;-85
2023/05/19 10:30:54;;;;;;;4.93;1.60;;;;;;;;;;4250100;28;20039;-84
2023/05/19 10:32:59;;;;;;;6.50;1.90;;;22.10;83.50;;;;;;4230233;28;20472;-83
2023/05/19 10:35:22;;;;;;;4.75;1.33;;;24.30;69.90;;;;;;4248174;27;20453;-83
2023/05/19 10:37:31;;;;;;;7.80;2.35;;;24.50;70.90;;;;;;4252070;27;20107;-84
2023/05/19 10:39:36;;;;;;;3.85;1.42;;;;;;;;;;4251450;27;20051;-83
2023/05/19 10:41:45;;;;;;;3.38;1.40;;;;;;;;;;4250227;27;20483;-84
2023/05/19 10:43:46;;;;;;;9.10;2.08;;;;;;;;;;4251161;27;20043;-83
2023/05/19 10:45:48;;;;;;;5.13;1.83;;;;;;;;;;4249775;27;20078;-83
2023/05/19 10:47:50;;;;;;;8.82;2.20;;;;;;;;;;4216861;28;20058;-83
2023/05/19 10:49:52;;;;;;;6.28;2.03;;;;;;;;;;4252842;27;20194;-83
2023/05/19 10:51:57;;;;;;;6.57;1.98;;;;;;;;;;4251594;27;20079;-83
2023/05/19 10:54:01;;;;;;;4.60;1.50;;;;;;;;;;4252359;27;20053;-83
2023/05/19 10:56:03;;;;;;;7.95;1.77;;;;;;;;;;4233343;28;20124;-83
2023/05/19 10:58:04;;;;;;;5.30;1.70;;;;;;;;;;4249432;27;20035;-83
2023/05/19 11:00:25;;;;;;;16.55;1.77;;;;;;;;;;4217388;28;20059;-83